Meteógrafos Informações Meteorológicas em tempo real
Aeroporto Leite Lopes
15-12-2019 22:56

Temperatura atual: 27 graus 80 F    Umidade relativa: 61 %
Velocidade do vento: 03 nós 5 Km/h    Direção: 120 graus ESE
Ajuste do altímetro ..: 1015 HPA
Visibilidade: Ótima    Tempo presente: Céu Limpo

Observação
Data Hora BRTTempo°CUmidadePressãoVentoVisib.
15/12 - 22:56   Céu Limpo 27° 61% 1015 Este-sudeste/5 km/h OK
15/12 - 21:56   Céu Limpo 27° 61% 1015 Sudeste/5 km/h OK
15/12 - 20:56   Céu Limpo 29° 51% 1014 Este-nordeste/7 km/h OK
15/12 - 19:56   Céu Limpo 29° 54% 1014 Nordeste/7 km/h CAVO
15/12 - 18:56   Céu Limpo 31° 46% 1014 Oeste-sudoeste/10 km/h OK
15/12 - 17:55   Céu Limpo 31° 46% 1014 Oeste-sudoeste/10 km/h OK
15/12 - 16:56   Não Disponível 33° 38% 1014 /9 km/h OK
15/12 - 15:56   Não Disponível 33° 34% 1014 Norte/12 km/h 9999
15/12 - 14:56   Poucas nuvens esparsas 33° 43% 1015 /7 km/h OK
15/12 - 13:56   Não Disponível 32° 43% 1016 Leste/14 km/h OK
15/12 - 12:56   Céu Limpo 30° 55% 1016 Leste/9 km/h OK
15/12 - 11:56   Céu Limpo 29° 58% 1017 Leste/12 km/h OK
15/12 - 10:56   Céu Limpo 28° 61% 1017 Leste/12 km/h OK
15/12 - 09:56   Céu Limpo 25° 78% 1018 Sudeste/7 km/h OK
15/12 - 08:56   Céu Limpo 23° 88% 1018 Leste/5 km/h OK
15/12 - 07:56   Céu Limpo 22° 94% 1018 Norte/0 km/h OK
15/12 - 06:56   Céu Limpo 22° 88% 1017 Norte/0 km/h OK
15/12 - 05:56   Céu Limpo 22° 88% 1017 Norte/0 km/h OK
15/12 - 04:56   Céu Limpo 22° 88% 1016 Sudeste/5 km/h OK
15/12 - 03:56   Céu Limpo 22° 88% 1016 Leste/5 km/h OK
15/12 - 02:56   Céu Limpo 22° 88% 1016 Leste/5 km/h OK
15/12 - 01:56   Céu Limpo 22° 94% 1016 Este-sudeste/5 km/h OK
15/12 - 00:56   Céu Limpo 21° 94% 1016 Norte/0 km/h OK
14/12 - 23:56   Céu Limpo 22° 88% 1017 Este-sudeste/5 km/h OK

Termo de Uso  |   Links Úteis  |   Imprensa  |  Anuncie  |  Fale Conosco  |  Versão Celular  |   Política de Privacidade

Apolo11.com - Todos os direitos reservados - 2000 - 2019

"Existem velas que iluminam tudo, menos o próprio candelabro" - Hebbel